CYRL

Details ICAO CYRL (YRL)
Name RED LAKE
Region Canada
Timezone America/Winnipeg (UTC-6.0)
Plans Departing 0
Arriving 3
Stats Elevation 1,265 ft / 386 m (AMSL)
Location 51.066944° -93.793055°
Runways 1
Magnetic Variation 0.193° W
Sunrise 2017-12-14 14:13:02 UTC / 2017-12-14 08:13:02 Local
Sunset 2017-12-14 22:09:43 UTC / 2017-12-14 16:09:43 Local
Advertisement - Login to hide

Runways

ID Width Length Bearing (true) Bearing (mag) Surface Threshold Offset Overrun Length
08 150 ft / 46 m 5,034 ft / 1,534 m 80.72° 80.91° Asphalt 0 ft / 0 m 0 ft / 0 m
26 150 ft / 46 m 5,034 ft / 1,534 m 260.74° 260.93° Asphalt 0 ft / 0 m 0 ft / 0 m

Map

Weather


0- 5 10 15 20 25 30 35+ Temperature / ° C

Clouds and Precipitation
Forecast for 2017-12-14 18:00 UTC. Updated a few seconds ago

Ground ~20,000 ft ~40,000 ft Winds

METAR

CYRL 141700Z 30006KT 15SM -SN SCT020 BKN030 OVC050 M13/M15 A2991 RMK SC3SC3SC2 SLP167

TAF

TAF CYRL 141344Z 1414/1502 VRB03KT P6SM SCT007 OVC030 TEMPO 1414/1419 5SM -SN BKN007 OVC015 FM141900 30008KT 6SM -SN SCT015 OVC025 TEMPO 1419/1423 11/2SM -SN OVC015 FM142300 33008KT P6SM SCT015 BKN040 TEMPO 1423/1502 4SM -SHSN BKN015 OVC040 RMK NXT FCST BY 142000Z

Frequencies

Unicom 122.30 MHz CTAF
Approach 135.32 MHz WINNIPEG CNTR
Warning: Do not use this data for real-world aviation or navigation. No guarantee of current accuracy is given.